createdAt,value
2018-06-25T00:00:07.616Z,101561.95
2018-06-25T00:02:36.522Z,101564.02
2018-06-25T00:05:05.598Z,101568.48
2018-06-25T00:07:34.506Z,101574.11
2018-06-25T00:10:06.763Z,101569.83
2018-06-25T00:12:35.948Z,101559.58
2018-06-25T00:15:05.709Z,101557.55
2018-06-25T00:17:34.624Z,101556.60
2018-06-25T00:20:07.167Z,101552.99
2018-06-25T00:22:36.462Z,101558.70
2018-06-25T00:25:05.425Z,101556.28
2018-06-25T00:27:34.719Z,101552.42
2018-06-25T00:30:07.017Z,101553.02
2018-06-25T00:32:36.492Z,101558.48
2018-06-25T00:35:05.465Z,101552.79
2018-06-25T00:37:34.394Z,101547.80
2018-06-25T00:40:07.088Z,101547.00
2018-06-25T00:42:36.069Z,101550.26
2018-06-25T00:45:05.067Z,101549.08
2018-06-25T00:47:33.980Z,101546.27
2018-06-25T00:50:06.123Z,101553.98
2018-06-25T00:52:35.270Z,101555.61
2018-06-25T00:55:04.512Z,101556.60
2018-06-25T00:57:33.573Z,101558.25
2018-06-25T01:00:05.962Z,101558.05
2018-06-25T01:02:34.906Z,101558.19
2018-06-25T01:05:04.000Z,101561.60
2018-06-25T01:07:32.919Z,101561.52
2018-06-25T01:10:05.187Z,101555.74
2018-06-25T01:12:34.474Z,101558.45
2018-06-25T01:15:03.679Z,101559.70
2018-06-25T01:17:32.878Z,101570.21
2018-06-25T01:20:08.426Z,101569.97
2018-06-25T01:22:37.428Z,101568.78
2018-06-25T01:25:07.209Z,101562.05
2018-06-25T01:27:36.166Z,101566.61
2018-06-25T01:30:10.201Z,101560.47
2018-06-25T01:32:39.243Z,101565.30
2018-06-25T01:35:08.399Z,101561.88
2018-06-25T01:37:37.663Z,101551.34
2018-06-25T01:40:08.011Z,101552.70
2018-06-25T01:42:37.482Z,101545.70
2018-06-25T01:45:06.582Z,101550.62
2018-06-25T01:47:35.660Z,101549.33
2018-06-25T01:50:08.498Z,101562.53
2018-06-25T01:52:37.431Z,101556.46
2018-06-25T01:55:06.785Z,101562.33
2018-06-25T01:57:35.925Z,101555.67
2018-06-25T02:00:08.399Z,101563.83
2018-06-25T02:02:37.586Z,101566.39
2018-06-25T02:05:06.755Z,101561.59
2018-06-25T02:07:35.732Z,101558.13
2018-06-25T02:10:08.603Z,101552.44
2018-06-25T02:12:37.694Z,101551.95
2018-06-25T02:15:08.073Z,101568.98
2018-06-25T02:17:37.286Z,101561.94
2018-06-25T02:20:08.059Z,101564.27
2018-06-25T02:22:36.987Z,101561.16
2018-06-25T02:25:06.382Z,101561.91
2018-06-25T02:27:35.318Z,101554.62
2018-06-25T02:30:08.119Z,101560.98
2018-06-25T02:32:37.615Z,101563.55
2018-06-25T02:35:06.718Z,101571.09
2018-06-25T02:37:35.676Z,101564.81
2018-06-25T02:40:08.306Z,101568.86
2018-06-25T02:42:37.585Z,101568.08
2018-06-25T02:45:06.677Z,101563.82
2018-06-25T02:47:35.751Z,101566.33
2018-06-25T02:50:08.092Z,101567.44
2018-06-25T02:52:37.333Z,101566.56
2018-06-25T02:55:06.446Z,101571.77
2018-06-25T02:57:35.796Z,101577.00
2018-06-25T03:00:08.840Z,101573.36
2018-06-25T03:02:37.887Z,101575.89
2018-06-25T03:05:07.051Z,101564.66
2018-06-25T03:07:36.120Z,101567.95
2018-06-25T03:10:08.615Z,101562.97
2018-06-25T03:12:37.545Z,101572.83
2018-06-25T03:15:06.797Z,101566.77
2018-06-25T03:17:36.281Z,101570.94
2018-06-25T03:20:09.681Z,101568.75
2018-06-25T03:22:38.762Z,101568.66
2018-06-25T03:25:08.300Z,101568.73
2018-06-25T03:27:37.362Z,101577.78
2018-06-25T03:30:07.224Z,101577.03
2018-06-25T03:32:36.523Z,101575.89
2018-06-25T03:35:05.652Z,101575.56
2018-06-25T03:37:35.028Z,101572.28
2018-06-25T03:40:07.954Z,101572.22
2018-06-25T03:42:37.032Z,101573.66
2018-06-25T03:45:06.151Z,101578.59
2018-06-25T03:47:35.272Z,101586.36
2018-06-25T03:50:07.633Z,101593.93
2018-06-25T03:52:36.698Z,101597.59
2018-06-25T03:55:06.268Z,101594.50
2018-06-25T03:57:35.499Z,101593.47
2018-06-25T04:00:07.731Z,101592.18
2018-06-25T04:02:36.975Z,101589.02
2018-06-25T04:05:06.420Z,101584.52
2018-06-25T04:07:35.636Z,101588.55
2018-06-25T04:10:08.171Z,101594.62
2018-06-25T04:12:37.141Z,101599.86
2018-06-25T04:15:06.971Z,101607.58
2018-06-25T04:17:36.219Z,101599.97
2018-06-25T04:20:08.429Z,101606.31
2018-06-25T04:22:37.565Z,101598.59
2018-06-25T04:25:07.224Z,101605.39
2018-06-25T04:27:36.227Z,101612.74
2018-06-25T04:30:08.518Z,101620.29
2018-06-25T04:32:38.454Z,101617.73
2018-06-25T04:35:08.161Z,101619.33
2018-06-25T04:37:37.831Z,101614.33
2018-06-25T04:40:07.188Z,101622.18
2018-06-25T04:42:37.103Z,101622.59
2018-06-25T04:45:06.463Z,101620.54
2018-06-25T04:47:35.783Z,101621.19
2018-06-25T04:50:07.670Z,101625.88
2018-06-25T04:52:37.267Z,101625.58
2018-06-25T04:55:06.669Z,101631.13
2018-06-25T04:57:35.812Z,101627.16
2018-06-25T05:00:06.966Z,101638.73
2018-06-25T05:02:35.955Z,101637.08
2018-06-25T05:05:05.585Z,101635.17
2018-06-25T05:07:34.790Z,101639.35
2018-06-25T05:10:07.394Z,101644.75
2018-06-25T05:12:36.519Z,101638.53
2018-06-25T05:15:05.603Z,101645.32
2018-06-25T05:17:34.977Z,101645.43
2018-06-25T05:20:07.402Z,101648.59
2018-06-25T05:22:36.518Z,101652.34
2018-06-25T05:25:05.918Z,101654.31
2018-06-25T05:27:35.100Z,101656.77
2018-06-25T05:30:07.491Z,101655.48
2018-06-25T05:32:36.746Z,101654.37
2018-06-25T05:35:06.050Z,101659.44
2018-06-25T05:37:35.544Z,101658.79
2018-06-25T05:40:07.931Z,101659.91
2018-06-25T05:42:37.191Z,101660.34
2018-06-25T05:45:06.334Z,101663.90
2018-06-25T05:47:35.286Z,101663.34
2018-06-25T05:50:09.722Z,101663.23
2018-06-25T05:52:38.895Z,101669.72
2018-06-25T05:55:08.118Z,101667.83
2018-06-25T05:57:37.709Z,101669.91
2018-06-25T06:00:07.243Z,101676.79
2018-06-25T06:02:36.371Z,101678.39
2018-06-25T06:05:05.999Z,101679.63
2018-06-25T06:07:34.966Z,101674.63
2018-06-25T06:10:09.449Z,101681.13
2018-06-25T06:12:38.639Z,101680.25
2018-06-25T06:15:07.894Z,101681.92
2018-06-25T06:17:36.963Z,101681.70
2018-06-25T06:20:08.131Z,101687.07
2018-06-25T06:22:37.431Z,101680.26
2018-06-25T06:25:06.715Z,101683.34
2018-06-25T06:27:36.011Z,101686.63
2018-06-25T06:30:08.815Z,101691.80
2018-06-25T06:32:38.776Z,101692.28
2018-06-25T06:35:08.603Z,101695.98
2018-06-25T06:37:37.781Z,101698.00
2018-06-25T06:40:08.479Z,101702.39
2018-06-25T06:42:37.535Z,101698.55
2018-06-25T06:45:06.847Z,101703.09
2018-06-25T06:47:35.914Z,101708.00
2018-06-25T06:50:06.975Z,101704.73
2018-06-25T06:52:36.280Z,101709.09
2018-06-25T06:55:05.807Z,101713.30
2018-06-25T06:57:34.925Z,101709.86
2018-06-25T07:00:07.839Z,101713.52
2018-06-25T07:02:36.819Z,101712.11
2018-06-25T07:05:06.265Z,101717.14
2018-06-25T07:07:35.383Z,101713.95
2018-06-25T07:10:07.831Z,101715.12
2018-06-25T07:12:37.544Z,101718.44
2018-06-25T07:15:07.150Z,101720.11
2018-06-25T07:17:36.519Z,101725.23
2018-06-25T07:20:07.192Z,101721.09
2018-06-25T07:22:36.151Z,101727.16
2018-06-25T07:25:05.154Z,101725.68
2018-06-25T07:27:34.335Z,101731.03
2018-06-25T07:30:10.511Z,101722.36
2018-06-25T07:32:40.179Z,101726.48
2018-06-25T07:35:09.523Z,101725.36
2018-06-25T07:37:38.628Z,101725.34
2018-06-25T07:40:07.786Z,101728.20
2018-06-25T07:42:37.039Z,101729.92
2018-06-25T07:45:06.385Z,101732.61
2018-06-25T07:47:35.416Z,101729.47
2018-06-25T07:50:07.556Z,101729.14
2018-06-25T07:52:36.793Z,101726.15
2018-06-25T07:55:06.128Z,101727.89
2018-06-25T07:57:35.382Z,101724.69
2018-06-25T08:00:08.170Z,101718.50
2018-06-25T08:02:37.875Z,101721.19
2018-06-25T08:05:07.011Z,101724.33
2018-06-25T08:07:36.267Z,101720.92
2018-06-25T08:10:07.260Z,101721.31
2018-06-25T08:12:36.325Z,101725.50
2018-06-25T08:15:05.725Z,101720.98
2018-06-25T08:17:34.939Z,101728.36
2018-06-25T08:20:09.203Z,101731.87
2018-06-25T08:22:38.159Z,101739.95
2018-06-25T08:25:07.479Z,101736.81
2018-06-25T08:27:36.703Z,101744.33
2018-06-25T08:30:07.571Z,101741.41
2018-06-25T08:32:37.058Z,101744.97
2018-06-25T08:35:06.152Z,101744.50
2018-06-25T08:37:35.275Z,101742.27
2018-06-25T08:40:07.831Z,101742.33
2018-06-25T08:42:37.122Z,101748.23
2018-06-25T08:45:06.411Z,101745.18
2018-06-25T08:47:35.510Z,101746.39
2018-06-25T08:50:08.491Z,101755.20
2018-06-25T08:52:37.594Z,101754.75
2018-06-25T08:55:06.732Z,101756.86
2018-06-25T08:57:36.394Z,101757.80
2018-06-25T09:00:08.851Z,101753.80
2018-06-25T09:02:37.966Z,101760.84
2018-06-25T09:05:07.336Z,101746.77
2018-06-25T09:07:36.580Z,101750.98
2018-06-25T09:10:07.552Z,101749.28
2018-06-25T09:12:36.792Z,101761.08
2018-06-25T09:15:06.390Z,101755.66
2018-06-25T09:17:35.593Z,101753.46
2018-06-25T09:20:08.286Z,101748.31
2018-06-25T09:22:37.227Z,101761.02
2018-06-25T09:25:06.497Z,101759.77
2018-06-25T09:27:41.112Z,101758.14
2018-06-25T09:30:10.336Z,101761.55
2018-06-25T09:32:39.605Z,101763.95
2018-06-25T09:35:08.618Z,101762.45
2018-06-25T09:37:37.795Z,101762.50
2018-06-25T09:40:09.318Z,101759.39
2018-06-25T09:42:39.003Z,101764.02
2018-06-25T09:45:09.827Z,101762.16
2018-06-25T09:47:38.959Z,101770.36
2018-06-25T09:50:08.196Z,101767.97
2018-06-25T09:52:38.292Z,101765.92
2018-06-25T09:55:07.410Z,101768.33
2018-06-25T09:57:36.675Z,101768.52
2018-06-25T10:00:09.386Z,101760.37
2018-06-25T10:02:38.327Z,101765.70
2018-06-25T10:05:07.806Z,101766.20
2018-06-25T10:07:36.843Z,101760.20
2018-06-25T10:10:08.815Z,101763.11
2018-06-25T10:12:38.202Z,101761.75
2018-06-25T10:15:07.141Z,101762.58
2018-06-25T10:17:36.192Z,101760.55
2018-06-25T10:20:08.685Z,101759.90
2018-06-25T10:22:37.810Z,101761.39
2018-06-25T10:25:07.092Z,101764.88
2018-06-25T10:27:36.170Z,101765.15
2018-06-25T10:30:07.329Z,101771.66
2018-06-25T10:32:36.602Z,101773.49
2018-06-25T10:35:06.177Z,101772.34
2018-06-25T10:37:35.120Z,101774.38
2018-06-25T10:40:07.918Z,101776.95
2018-06-25T10:42:37.392Z,101777.58
2018-06-25T10:45:06.505Z,101776.70
2018-06-25T10:47:35.820Z,101767.09
2018-06-25T10:50:09.245Z,101774.56
2018-06-25T10:52:38.265Z,101768.97
2018-06-25T10:55:07.826Z,101766.63
2018-06-25T10:57:36.772Z,101758.89
2018-06-25T11:00:07.447Z,101764.27
2018-06-25T11:02:36.122Z,101761.92
2018-06-25T11:05:05.851Z,101760.18
2018-06-25T11:07:34.858Z,101755.08
2018-06-25T11:10:06.884Z,101745.20
2018-06-25T11:12:35.849Z,101742.73
2018-06-25T11:15:06.214Z,101738.61
2018-06-25T11:17:35.284Z,101740.00
2018-06-25T11:20:08.605Z,101740.73
2018-06-25T11:22:37.854Z,101739.44
2018-06-25T11:25:07.229Z,101743.43
2018-06-25T11:27:36.486Z,101748.28
2018-06-25T11:30:09.409Z,101747.33
2018-06-25T11:32:38.322Z,101742.86
2018-06-25T11:35:07.355Z,101742.01
2018-06-25T11:37:36.859Z,101740.89
2018-06-25T11:40:07.688Z,101751.52
2018-06-25T11:42:36.785Z,101752.00
2018-06-25T11:45:05.777Z,101756.36
2018-06-25T11:47:34.751Z,101765.55
2018-06-25T11:50:07.359Z,101765.64
2018-06-25T11:52:36.785Z,101760.94
2018-06-25T11:55:05.767Z,101760.00
2018-06-25T11:57:34.698Z,101765.23
2018-06-25T12:00:06.842Z,101763.08
2018-06-25T12:02:35.893Z,101770.43
2018-06-25T12:05:04.784Z,101770.08
2018-06-25T12:07:33.746Z,101774.12
2018-06-25T12:10:05.838Z,101778.23
2018-06-25T12:12:35.650Z,101776.31
2018-06-25T12:15:04.864Z,101771.13
2018-06-25T12:17:34.013Z,101769.22
2018-06-25T12:20:06.556Z,101776.20
2018-06-25T12:22:35.680Z,101776.30
2018-06-25T12:25:04.720Z,101779.92
2018-06-25T12:27:33.752Z,101779.48
2018-06-25T12:30:05.817Z,101780.20
2018-06-25T12:32:35.031Z,101777.25
2018-06-25T12:35:04.083Z,101776.52
2018-06-25T12:37:33.067Z,101772.48
2018-06-25T12:40:05.286Z,101775.30
2018-06-25T12:42:34.288Z,101773.98
2018-06-25T12:45:03.240Z,101765.78
2018-06-25T12:47:32.366Z,101761.56
2018-06-25T12:50:05.942Z,101766.95
2018-06-25T12:52:34.925Z,101769.13
2018-06-25T12:55:04.043Z,101765.09
2018-06-25T12:57:33.883Z,101771.66
2018-06-25T13:00:06.001Z,101763.62
2018-06-25T13:02:34.971Z,101770.62
2018-06-25T13:05:04.007Z,101761.20
2018-06-25T13:07:33.007Z,101765.37
2018-06-25T13:10:06.601Z,101763.27
2018-06-25T13:12:35.667Z,101769.14
2018-06-25T13:15:04.786Z,101776.38
2018-06-25T13:17:34.218Z,101771.67
2018-06-25T13:20:06.801Z,101769.30
2018-06-25T13:22:36.745Z,101776.88
2018-06-25T13:25:06.074Z,101774.86
2018-06-25T13:27:35.101Z,101774.36
2018-06-25T13:30:07.311Z,101769.15
2018-06-25T13:32:36.378Z,101773.84
2018-06-25T13:35:05.728Z,101766.44
2018-06-25T13:37:34.791Z,101767.97
2018-06-25T13:40:07.568Z,101764.77
2018-06-25T13:42:36.862Z,101765.45
2018-06-25T13:45:07.015Z,101765.27
2018-06-25T13:47:36.342Z,101767.79
2018-06-25T13:50:09.116Z,101762.08
2018-06-25T13:52:38.402Z,101759.48
2018-06-25T13:55:07.925Z,101765.76
2018-06-25T13:57:37.716Z,101766.97
2018-06-25T14:00:08.897Z,101761.75
2018-06-25T14:02:38.122Z,101761.41
2018-06-25T14:05:07.111Z,101764.94
2018-06-25T14:07:36.086Z,101765.28
2018-06-25T14:10:07.047Z,101760.73
2018-06-25T14:12:36.395Z,101761.25
2018-06-25T14:15:06.725Z,101755.27
2018-06-25T14:17:35.799Z,101755.73
2018-06-25T14:20:08.520Z,101755.53
2018-06-25T14:22:37.591Z,101757.69
2018-06-25T14:25:06.814Z,101752.64
2018-06-25T14:27:41.051Z,101753.30
2018-06-25T14:30:15.436Z,101748.59
2018-06-25T14:32:48.870Z,101744.33
2018-06-25T14:35:17.810Z,101739.22
2018-06-25T14:37:47.391Z,101734.43
2018-06-25T14:40:16.618Z,101729.70
2018-06-25T14:42:46.316Z,101724.94
2018-06-25T14:45:15.632Z,101727.45
2018-06-25T14:47:44.864Z,101722.44
2018-06-25T14:50:14.004Z,101720.84
2018-06-25T14:52:43.607Z,101720.45
2018-06-25T14:55:12.479Z,101721.89
2018-06-25T14:57:41.520Z,101718.94
2018-06-25T15:00:10.550Z,101721.75
2018-06-25T15:02:39.563Z,101719.94
2018-06-25T15:05:08.663Z,101719.97
2018-06-25T15:07:37.701Z,101713.11
2018-06-25T15:10:07.586Z,101711.90
2018-06-25T15:12:36.861Z,101709.70
2018-06-25T15:15:06.315Z,101706.64
2018-06-25T15:17:35.366Z,101706.36
2018-06-25T15:20:08.768Z,101700.91
2018-06-25T15:22:37.707Z,101697.92
2018-06-25T15:25:06.762Z,101698.42
2018-06-25T15:27:36.713Z,101694.56
2018-06-25T15:30:09.565Z,101684.68
2018-06-25T15:32:38.678Z,101692.64
2018-06-25T15:35:07.731Z,101688.46
2018-06-25T15:37:36.720Z,101687.45
2018-06-25T15:40:09.206Z,101687.91
2018-06-25T15:42:38.315Z,101682.17
2018-06-25T15:45:07.550Z,101679.83
2018-06-25T15:47:37.751Z,101681.75
2018-06-25T15:50:07.592Z,101679.31
2018-06-25T15:52:36.901Z,101685.11
2018-06-25T15:55:06.080Z,101682.58
2018-06-25T15:57:35.346Z,101677.86
2018-06-25T16:00:08.097Z,101686.53
2018-06-25T16:02:37.178Z,101679.37
2018-06-25T16:05:06.316Z,101679.70
2018-06-25T16:07:35.869Z,101680.73
2018-06-25T16:10:07.037Z,101684.86
2018-06-25T16:12:36.359Z,101675.50
2018-06-25T16:15:05.852Z,101676.03
2018-06-25T16:17:35.430Z,101674.91
2018-06-25T16:20:07.922Z,101676.00
2018-06-25T16:22:37.010Z,101664.59
2018-06-25T16:25:07.554Z,101671.81
2018-06-25T16:27:37.385Z,101665.18
2018-06-25T16:30:08.453Z,101659.36
2018-06-25T16:32:37.722Z,101663.33
2018-06-25T16:35:06.697Z,101660.63
2018-06-25T16:37:35.884Z,101657.58
2018-06-25T16:40:08.730Z,101659.87
2018-06-25T16:42:37.888Z,101656.84
2018-06-25T16:45:07.196Z,101653.71
2018-06-25T16:47:36.688Z,101656.14
2018-06-25T16:50:08.923Z,101655.44
2018-06-25T16:52:38.807Z,101652.23
2018-06-25T16:55:07.955Z,101661.34
2018-06-25T16:57:37.084Z,101660.20
2018-06-25T17:00:07.164Z,101657.36
2018-06-25T17:02:36.288Z,101660.88
2018-06-25T17:05:05.578Z,101660.66
2018-06-25T17:07:34.646Z,101652.45
2018-06-25T17:10:07.670Z,101654.80
2018-06-25T17:12:36.932Z,101651.25
2018-06-25T17:15:06.111Z,101653.80
2018-06-25T17:17:35.095Z,101647.48
2018-06-25T17:20:07.531Z,101646.70
2018-06-25T17:22:37.012Z,101651.69
2018-06-25T17:25:06.780Z,101654.16
2018-06-25T17:27:36.381Z,101647.02
2018-06-25T17:30:08.828Z,101650.74
2018-06-25T17:32:37.790Z,101645.30
2018-06-25T17:35:07.155Z,101648.99
2018-06-25T17:37:36.447Z,101648.64
2018-06-25T17:40:07.199Z,101648.31
2018-06-25T17:42:36.195Z,101647.23
2018-06-25T17:45:05.406Z,101650.34
2018-06-25T17:47:35.373Z,101654.94
2018-06-25T17:50:08.337Z,101649.84
2018-06-25T17:52:37.594Z,101652.56
2018-06-25T17:55:06.732Z,101658.00
2018-06-25T17:57:35.871Z,101661.10
2018-06-25T18:00:09.145Z,101661.10
2018-06-25T18:02:40.757Z,101662.30
2018-06-25T18:05:10.372Z,101662.55
2018-06-25T18:07:39.770Z,101661.58
2018-06-25T18:10:08.841Z,101655.97
2018-06-25T18:12:37.959Z,101653.09
2018-06-25T18:15:07.302Z,101654.78
2018-06-25T18:17:36.601Z,101655.63
2018-06-25T18:20:06.705Z,101660.62
2018-06-25T18:22:35.746Z,101657.72
2018-06-25T18:25:05.097Z,101653.90
2018-06-25T18:27:34.355Z,101661.04
2018-06-25T18:30:07.723Z,101659.09
2018-06-25T18:32:37.238Z,101653.30
2018-06-25T18:35:06.259Z,101653.87
2018-06-25T18:37:35.487Z,101653.39
2018-06-25T18:40:07.990Z,101658.89
2018-06-25T18:42:37.256Z,101657.83
2018-06-25T18:45:06.675Z,101662.34
2018-06-25T18:47:36.214Z,101652.77
2018-06-25T18:50:10.338Z,101654.89
2018-06-25T18:52:39.369Z,101645.30
2018-06-25T18:55:08.589Z,101650.70
2018-06-25T18:57:37.919Z,101643.63
2018-06-25T19:00:09.795Z,101647.60
2018-06-25T19:02:39.023Z,101644.87
2018-06-25T19:05:08.384Z,101652.98
2018-06-25T19:07:37.370Z,101656.86
2018-06-25T19:10:07.731Z,101658.09
2018-06-25T19:12:36.795Z,101662.12
2018-06-25T19:15:06.137Z,101661.90
2018-06-25T19:17:35.074Z,101662.88
2018-06-25T19:20:08.099Z,101663.27
2018-06-25T19:22:37.179Z,101660.87
2018-06-25T19:25:06.340Z,101657.20
2018-06-25T19:27:35.417Z,101660.70
2018-06-25T19:30:10.680Z,101658.39
2018-06-25T19:32:39.808Z,101667.98
2018-06-25T19:35:08.978Z,101668.32
2018-06-25T19:37:38.611Z,101677.07
2018-06-25T19:40:07.656Z,101682.61
2018-06-25T19:42:37.145Z,101681.11
2018-06-25T19:45:06.637Z,101683.47
2018-06-25T19:47:36.175Z,101684.31
2018-06-25T19:50:09.440Z,101684.64
2018-06-25T19:52:38.394Z,101693.68
2018-06-25T19:55:07.456Z,101693.85
2018-06-25T19:57:36.418Z,101694.86
2018-06-25T20:00:09.347Z,101698.67
2018-06-25T20:02:38.365Z,101693.80
2018-06-25T20:05:07.324Z,101698.14
2018-06-25T20:07:36.331Z,101697.46
2018-06-25T20:10:09.372Z,101701.27
2018-06-25T20:12:38.602Z,101706.95
2018-06-25T20:15:07.710Z,101704.60
2018-06-25T20:17:36.655Z,101707.96
2018-06-25T20:20:10.710Z,101707.05
2018-06-25T20:22:40.246Z,101711.37
2018-06-25T20:25:12.407Z,101708.36
2018-06-25T20:27:41.503Z,101707.66
2018-06-25T20:30:10.627Z,101712.09
2018-06-25T20:32:39.570Z,101713.31
2018-06-25T20:35:09.158Z,101711.72
2018-06-25T20:37:38.207Z,101711.56
2018-06-25T20:40:07.865Z,101716.03
2018-06-25T20:42:37.006Z,101716.84
2018-06-25T20:45:06.335Z,101722.70
2018-06-25T20:47:35.653Z,101726.80
2018-06-25T20:50:08.311Z,101724.41
2018-06-25T20:52:37.243Z,101723.84
2018-06-25T20:55:06.272Z,101730.86
2018-06-25T20:57:35.249Z,101733.50
2018-06-25T21:00:07.815Z,101732.69
2018-06-25T21:02:36.840Z,101733.48
2018-06-25T21:05:05.854Z,101732.87
2018-06-25T21:07:34.814Z,101724.91
2018-06-25T21:10:06.971Z,101725.81
2018-06-25T21:12:35.935Z,101724.41
2018-06-25T21:15:05.024Z,101726.36
2018-06-25T21:17:33.966Z,101724.61
2018-06-25T21:20:06.255Z,101727.53
2018-06-25T21:22:36.165Z,101723.20
2018-06-25T21:25:06.725Z,101726.53
2018-06-25T21:27:35.638Z,101729.94
2018-06-25T21:30:08.366Z,101726.50
2018-06-25T21:32:37.307Z,101724.84
2018-06-25T21:35:06.287Z,101726.30
2018-06-25T21:37:35.247Z,101724.35
2018-06-25T21:40:07.447Z,101718.28
2018-06-25T21:42:36.480Z,101726.58
2018-06-25T21:45:05.524Z,101720.05
2018-06-25T21:47:40.569Z,101716.98
2018-06-25T21:50:09.732Z,101719.20
2018-06-25T21:52:39.119Z,101719.88
2018-06-25T21:55:08.344Z,101714.70
2018-06-25T21:57:37.504Z,101713.02
2018-06-25T22:00:11.615Z,101716.09
2018-06-25T22:02:40.783Z,101718.83
2018-06-25T22:05:10.113Z,101717.20
2018-06-25T22:07:39.213Z,101725.58
2018-06-25T22:10:08.977Z,101729.52
2018-06-25T22:12:38.007Z,101728.77
2018-06-25T22:15:07.751Z,101729.17
2018-06-25T22:17:36.810Z,101732.54
2018-06-25T22:20:07.523Z,101731.78
2018-06-25T22:22:36.671Z,101730.01
2018-06-25T22:25:06.118Z,101726.58
2018-06-25T22:27:35.360Z,101726.85
2018-06-25T22:30:08.911Z,101726.44
2018-06-25T22:32:38.029Z,101723.28
2018-06-25T22:35:07.202Z,101722.63
2018-06-25T22:37:36.480Z,101738.37
2018-06-25T22:40:11.735Z,101733.93
2018-06-25T22:42:42.690Z,101737.95
2018-06-25T22:45:12.143Z,101737.17
2018-06-25T22:47:41.329Z,101738.59
2018-06-25T22:50:11.324Z,101736.33
2018-06-25T22:52:40.675Z,101741.73
2018-06-25T22:55:09.930Z,101740.06
2018-06-25T22:57:39.155Z,101731.70
2018-06-25T23:00:13.883Z,101728.91
2018-06-25T23:02:42.816Z,101731.70
2018-06-25T23:05:11.840Z,101737.69
2018-06-25T23:07:40.951Z,101743.91
2018-06-25T23:10:11.085Z,101743.35
2018-06-25T23:12:40.149Z,101738.00
2018-06-25T23:15:09.252Z,101745.95
2018-06-25T23:17:38.759Z,101749.84
2018-06-25T23:20:08.393Z,101742.12
2018-06-25T23:22:37.684Z,101749.92
2018-06-25T23:25:06.800Z,101751.47
2018-06-25T23:27:36.134Z,101748.59
2018-06-25T23:30:09.428Z,101743.67
2018-06-25T23:32:38.371Z,101738.33
2018-06-25T23:35:07.435Z,101740.70
2018-06-25T23:37:37.138Z,101741.95
2018-06-25T23:40:08.733Z,101743.50
2018-06-25T23:42:37.718Z,101744.50
2018-06-25T23:45:07.225Z,101748.59
2018-06-25T23:47:36.301Z,101747.46
2018-06-25T23:50:07.895Z,101744.14
2018-06-25T23:52:37.266Z,101746.17
2018-06-25T23:55:06.775Z,101741.90
2018-06-25T23:57:35.855Z,101740.27
